createdAt,value
2023-03-02T00:02:01.800Z,34.67
2023-03-02T00:04:55.023Z,30.00
2023-03-02T00:07:30.314Z,32.80
2023-03-02T00:09:57.617Z,32.28
2023-03-02T00:12:27.553Z,31.13
2023-03-02T00:14:55.321Z,33.03
2023-03-02T00:17:27.752Z,32.55
2023-03-02T00:20:06.694Z,30.40
2023-03-02T00:22:33.562Z,32.50
2023-03-02T00:25:00.354Z,30.77
2023-03-02T00:27:29.867Z,30.25
2023-03-02T00:29:59.658Z,33.90
2023-03-02T00:32:26.486Z,33.67
2023-03-02T00:34:53.914Z,32.90
2023-03-02T00:37:20.826Z,32.65
2023-03-02T00:39:47.694Z,36.03
2023-03-02T00:42:14.468Z,35.85
2023-03-02T00:44:41.362Z,35.70
2023-03-02T00:47:08.183Z,31.65
2023-03-02T00:49:36.449Z,33.53
2023-03-02T00:52:06.645Z,35.58
2023-03-02T00:54:33.455Z,32.58
2023-03-02T00:57:00.291Z,33.30
2023-03-02T00:59:27.167Z,33.25
2023-03-02T01:02:18.221Z,31.77
2023-03-02T01:04:46.241Z,32.78
2023-03-02T01:07:18.307Z,32.58
2023-03-02T01:09:45.706Z,34.33
2023-03-02T01:12:12.859Z,32.25
2023-03-02T01:14:44.082Z,33.15
2023-03-02T01:17:12.253Z,33.58
2023-03-02T01:19:40.217Z,32.03
2023-03-02T01:22:08.499Z,34.65
2023-03-02T01:24:35.440Z,35.33
2023-03-02T01:27:02.302Z,33.35
2023-03-02T01:29:29.078Z,30.75
2023-03-02T01:31:56.019Z,31.05
2023-03-02T01:34:22.939Z,32.83
2023-03-02T01:36:49.898Z,31.52
2023-03-02T01:39:16.875Z,32.63
2023-03-02T01:41:45.917Z,32.33
2023-03-02T01:44:40.685Z,31.83
2023-03-02T01:47:26.774Z,31.80
2023-03-02T01:50:26.329Z,30.98
2023-03-02T01:52:57.626Z,30.08
2023-03-02T01:55:31.384Z,29.25
2023-03-02T01:58:01.213Z,30.85
2023-03-02T02:00:35.366Z,31.25
2023-03-02T02:03:12.637Z,29.38
2023-03-02T02:05:46.459Z,29.50
2023-03-02T02:08:14.083Z,27.67
2023-03-02T02:10:41.587Z,28.95
2023-03-02T02:13:11.880Z,29.55
2023-03-02T02:15:40.677Z,30.70
2023-03-02T02:18:07.948Z,28.40
2023-03-02T02:20:44.824Z,27.80
2023-03-02T02:23:53.553Z,28.92
2023-03-02T02:26:39.313Z,29.10
2023-03-02T02:29:37.122Z,28.83
2023-03-02T02:32:17.890Z,28.50
2023-03-02T02:35:02.938Z,28.45
2023-03-02T02:37:44.654Z,29.00
2023-03-02T02:40:20.765Z,29.45
2023-03-02T02:42:51.735Z,28.63
2023-03-02T02:45:25.325Z,28.60
2023-03-02T02:47:55.916Z,30.02
2023-03-02T02:50:35.173Z,30.30
2023-03-02T02:53:27.113Z,29.00
2023-03-02T02:55:57.691Z,29.52
2023-03-02T02:58:45.767Z,31.05
2023-03-02T03:01:16.998Z,31.77
2023-03-02T03:03:58.097Z,28.67
2023-03-02T03:06:38.067Z,30.02
2023-03-02T03:09:08.692Z,29.52
2023-03-02T03:11:50.344Z,31.13
2023-03-02T03:14:24.636Z,29.23
2023-03-02T03:16:53.684Z,31.02
2023-03-02T03:19:26.678Z,29.00
2023-03-02T03:21:58.426Z,28.63
2023-03-02T03:24:29.960Z,30.63
2023-03-02T03:26:58.891Z,30.10
2023-03-02T03:29:29.533Z,30.23
2023-03-02T03:32:01.518Z,28.60
2023-03-02T03:34:30.253Z,28.17
2023-03-02T03:37:03.225Z,30.30
2023-03-02T03:39:34.761Z,28.42
2023-03-02T03:42:02.279Z,27.40
2023-03-02T03:44:29.434Z,27.23
2023-03-02T03:46:56.627Z,28.05
2023-03-02T03:49:24.074Z,27.83
2023-03-02T03:51:50.875Z,29.83
2023-03-02T03:54:18.330Z,27.02
2023-03-02T03:56:48.772Z,26.55
2023-03-02T03:59:21.994Z,26.30
2023-03-02T04:02:00.094Z,26.10
2023-03-02T04:04:34.899Z,26.80
2023-03-02T04:07:15.272Z,26.55
2023-03-02T04:09:43.749Z,25.10
2023-03-02T04:12:13.537Z,26.30
2023-03-02T04:14:45.492Z,24.15
2023-03-02T04:17:12.808Z,24.80
2023-03-02T04:19:42.940Z,25.42
2023-03-02T04:22:10.202Z,26.98
2023-03-02T04:24:37.314Z,26.02
2023-03-02T04:27:05.037Z,26.88
2023-03-02T04:29:33.480Z,24.98
2023-03-02T04:32:02.465Z,25.98
2023-03-02T04:34:30.966Z,26.02
2023-03-02T04:36:58.091Z,26.33
2023-03-02T04:39:25.905Z,26.25
2023-03-02T04:41:54.753Z,24.55
2023-03-02T04:44:21.666Z,26.33
2023-03-02T04:46:50.346Z,26.08
2023-03-02T04:49:19.533Z,25.38
2023-03-02T04:51:49.074Z,26.00
2023-03-02T04:54:26.336Z,23.50
2023-03-02T04:56:54.407Z,24.55
2023-03-02T04:59:27.716Z,26.08
2023-03-02T05:01:59.233Z,25.63
2023-03-02T05:04:27.480Z,25.02
2023-03-02T05:06:54.728Z,24.95
2023-03-02T05:09:27.059Z,24.58
2023-03-02T05:12:00.385Z,25.00
2023-03-02T05:14:28.772Z,23.50
2023-03-02T05:16:55.712Z,26.30
2023-03-02T05:19:22.756Z,25.88
2023-03-02T05:21:49.775Z,24.88
2023-03-02T05:24:16.660Z,25.52
2023-03-02T05:26:43.653Z,26.23
2023-03-02T05:29:10.438Z,25.27
2023-03-02T05:31:41.739Z,25.48
2023-03-02T05:34:11.599Z,25.27
2023-03-02T05:36:38.836Z,27.77
2023-03-02T05:39:07.284Z,26.83
2023-03-02T05:41:35.658Z,26.77
2023-03-02T05:44:02.548Z,25.35
2023-03-02T05:46:29.329Z,25.63
2023-03-02T05:48:56.131Z,26.42
2023-03-02T05:51:22.988Z,26.27
2023-03-02T05:53:49.862Z,25.75
2023-03-02T05:56:16.712Z,28.00
2023-03-02T05:58:43.559Z,25.73
2023-03-02T06:01:15.070Z,26.80
2023-03-02T06:03:43.285Z,25.90
2023-03-02T06:06:13.781Z,28.38
2023-03-02T06:08:41.713Z,26.60
2023-03-02T06:11:09.339Z,26.27
2023-03-02T06:13:37.906Z,26.08
2023-03-02T06:16:05.462Z,27.38
2023-03-02T06:18:32.595Z,27.58
2023-03-02T06:20:59.931Z,28.23
2023-03-02T06:23:26.808Z,26.35
2023-03-02T06:25:53.791Z,27.75
2023-03-02T06:28:21.828Z,27.98
2023-03-02T06:30:49.854Z,28.38
2023-03-02T06:33:18.957Z,28.42
2023-03-02T06:35:46.207Z,28.15
2023-03-02T06:38:13.495Z,28.70
2023-03-02T06:40:40.307Z,25.88
2023-03-02T06:43:07.113Z,28.38
2023-03-02T06:45:34.236Z,29.67
2023-03-02T06:48:02.292Z,29.23
2023-03-02T06:50:29.316Z,26.35
2023-03-02T06:52:56.706Z,27.85
2023-03-02T06:55:23.992Z,27.67
2023-03-02T06:57:51.526Z,27.90
2023-03-02T07:00:25.827Z,27.58
2023-03-02T07:02:53.429Z,29.35
2023-03-02T07:05:20.905Z,27.55
2023-03-02T07:07:47.975Z,27.50
2023-03-02T07:10:15.419Z,27.70
2023-03-02T07:12:42.951Z,27.48
2023-03-02T07:15:12.235Z,27.15
2023-03-02T07:17:40.795Z,27.10
2023-03-02T07:20:09.025Z,26.30
2023-03-02T07:22:36.934Z,27.98
2023-03-02T07:25:04.171Z,28.88
2023-03-02T07:27:31.050Z,27.00
2023-03-02T07:29:57.912Z,25.67
2023-03-02T07:32:24.972Z,26.02
2023-03-02T07:34:51.858Z,26.30
2023-03-02T07:37:18.682Z,26.10
2023-03-02T07:39:47.664Z,28.17
2023-03-02T07:42:15.422Z,27.25
2023-03-02T07:44:45.710Z,27.05
2023-03-02T07:47:12.634Z,25.23
2023-03-02T07:49:39.823Z,26.95
2023-03-02T07:52:06.854Z,26.52
2023-03-02T07:54:33.665Z,26.85
2023-03-02T07:57:00.922Z,25.83
2023-03-02T07:59:28.886Z,25.63
2023-03-02T08:01:58.570Z,28.10
2023-03-02T08:04:26.086Z,24.92
2023-03-02T08:06:52.881Z,25.15
2023-03-02T08:09:19.819Z,23.38
2023-03-02T08:11:47.836Z,24.02
2023-03-02T08:14:14.988Z,24.45
2023-03-02T08:16:42.117Z,24.48
2023-03-02T08:19:09.143Z,27.05
2023-03-02T08:21:36.040Z,24.85
2023-03-02T08:24:03.537Z,25.27
2023-03-02T08:26:31.171Z,22.33
2023-03-02T08:28:59.487Z,23.92
2023-03-02T08:31:26.739Z,22.48
2023-03-02T08:33:54.094Z,22.05
2023-03-02T08:36:21.377Z,21.70
2023-03-02T08:38:49.550Z,20.70
2023-03-02T08:41:20.196Z,21.10
2023-03-02T08:43:47.688Z,19.02
2023-03-02T08:46:18.177Z,20.92
2023-03-02T08:48:46.768Z,20.55
2023-03-02T08:51:18.628Z,20.40
2023-03-02T08:53:50.348Z,20.20
2023-03-02T08:56:21.583Z,18.75
2023-03-02T08:58:50.220Z,19.10
2023-03-02T09:01:21.061Z,19.85
2023-03-02T09:03:48.549Z,19.75
2023-03-02T09:06:16.292Z,19.33
2023-03-02T09:08:44.189Z,18.60
2023-03-02T09:11:11.237Z,21.25
2023-03-02T09:13:38.305Z,19.73
2023-03-02T09:16:06.536Z,19.60
2023-03-02T09:18:34.113Z,20.35
2023-03-02T09:21:01.134Z,19.52
2023-03-02T09:23:29.378Z,20.17
2023-03-02T09:25:56.582Z,18.35
2023-03-02T09:28:23.963Z,19.23
2023-03-02T09:30:58.814Z,19.08
2023-03-02T09:33:26.659Z,20.50
2023-03-02T09:35:53.643Z,19.13
2023-03-02T09:38:21.014Z,19.58
2023-03-02T09:40:53.166Z,19.95
2023-03-02T09:43:52.312Z,18.63
2023-03-02T09:46:49.636Z,18.77
2023-03-02T09:49:47.966Z,18.92
2023-03-02T09:52:40.922Z,17.83
2023-03-02T09:55:22.222Z,16.73
2023-03-02T09:57:50.670Z,18.67
2023-03-02T10:00:31.467Z,19.77
2023-03-02T10:03:27.013Z,18.25
2023-03-02T10:05:55.444Z,18.08
2023-03-02T10:08:29.700Z,18.10
2023-03-02T10:11:05.750Z,17.92
2023-03-02T10:14:08.145Z,16.67
2023-03-02T10:16:53.738Z,17.02
2023-03-02T10:19:34.510Z,17.52
2023-03-02T10:22:18.116Z,17.30
2023-03-02T10:24:58.633Z,16.23
2023-03-02T10:27:39.066Z,18.38
2023-03-02T10:30:31.295Z,17.77
2023-03-02T10:33:20.970Z,17.77
2023-03-02T10:35:53.322Z,17.75
2023-03-02T10:38:25.033Z,17.27
2023-03-02T10:41:02.050Z,16.95
2023-03-02T10:43:39.898Z,17.83
2023-03-02T10:46:10.627Z,16.75
2023-03-02T10:48:56.250Z,17.40
2023-03-02T10:51:32.709Z,17.65
2023-03-02T10:54:10.563Z,16.52
2023-03-02T10:56:41.327Z,17.55
2023-03-02T10:59:46.939Z,17.50
2023-03-02T11:02:25.020Z,16.95
2023-03-02T11:04:59.388Z,17.20
2023-03-02T11:07:29.597Z,16.45
2023-03-02T11:10:19.893Z,17.50
2023-03-02T11:12:49.353Z,17.30
2023-03-02T11:15:40.264Z,17.58
2023-03-02T11:18:07.131Z,16.88
2023-03-02T11:20:43.977Z,18.73
2023-03-02T11:23:25.272Z,17.15
2023-03-02T11:26:05.993Z,18.05
2023-03-02T11:28:58.660Z,17.17
2023-03-02T11:31:52.192Z,18.23
2023-03-02T11:34:48.672Z,17.33
2023-03-02T11:37:26.603Z,17.40
2023-03-02T11:40:26.413Z,16.25
2023-03-02T11:42:57.764Z,16.83
2023-03-02T11:45:29.666Z,18.73
2023-03-02T11:48:24.414Z,17.23
2023-03-02T11:51:06.930Z,15.85
2023-03-02T11:54:02.753Z,17.58
2023-03-02T11:56:34.736Z,17.08
2023-03-02T11:59:15.669Z,16.63
2023-03-02T12:01:49.045Z,15.00
2023-03-02T12:04:37.969Z,16.45
2023-03-02T12:07:25.919Z,15.60
2023-03-02T12:10:32.035Z,16.23
2023-03-02T12:13:26.024Z,14.32
2023-03-02T12:15:56.135Z,14.10
2023-03-02T12:18:22.955Z,14.55
2023-03-02T12:21:03.356Z,16.42
2023-03-02T12:23:32.756Z,14.05
2023-03-02T12:26:19.948Z,15.63
2023-03-02T12:28:59.136Z,13.93
2023-03-02T12:31:26.249Z,14.57
2023-03-02T12:33:53.665Z,15.43
2023-03-02T12:36:32.550Z,14.25
2023-03-02T12:39:27.298Z,14.13
2023-03-02T12:42:28.229Z,15.40
2023-03-02T12:45:25.261Z,15.05
2023-03-02T12:48:03.105Z,14.57
2023-03-02T12:50:37.563Z,14.88
2023-03-02T12:53:15.112Z,14.55
2023-03-02T12:55:41.933Z,17.38
2023-03-02T12:58:28.177Z,14.65
2023-03-02T13:00:59.821Z,13.50
2023-03-02T13:03:29.407Z,13.55
2023-03-02T13:06:10.855Z,11.95
2023-03-02T13:08:37.830Z,12.13
2023-03-02T13:11:05.441Z,12.63
2023-03-02T13:13:45.326Z,14.18
2023-03-02T13:16:32.867Z,12.95
2023-03-02T13:19:05.523Z,12.68
2023-03-02T13:21:37.712Z,11.95
2023-03-02T13:24:27.698Z,10.88
2023-03-02T13:27:08.270Z,12.25
2023-03-02T13:29:35.363Z,11.25
2023-03-02T13:32:22.221Z,12.65
2023-03-02T13:34:59.171Z,12.48
2023-03-02T13:37:40.590Z,14.07
2023-03-02T13:40:27.499Z,13.48
2023-03-02T13:42:55.096Z,13.23
2023-03-02T13:45:29.357Z,13.85
2023-03-02T13:47:59.679Z,14.60
2023-03-02T13:50:32.228Z,14.13
2023-03-02T13:53:05.504Z,14.23
2023-03-02T13:55:34.161Z,14.57
2023-03-02T13:58:01.764Z,14.13
2023-03-02T14:00:35.151Z,13.68
2023-03-02T14:03:02.481Z,14.07
2023-03-02T14:05:35.730Z,13.95
2023-03-02T14:08:02.947Z,13.40
2023-03-02T14:10:30.001Z,12.60
2023-03-02T14:13:09.010Z,12.32
2023-03-02T14:15:46.595Z,11.48
2023-03-02T14:18:31.283Z,11.93
2023-03-02T14:20:58.423Z,11.98
2023-03-02T14:23:26.609Z,12.07
2023-03-02T14:25:56.297Z,12.02
2023-03-02T14:28:37.443Z,12.10
2023-03-02T14:31:04.337Z,11.85
2023-03-02T14:33:31.148Z,11.35
2023-03-02T14:35:58.823Z,10.75
2023-03-02T14:38:27.732Z,11.73
2023-03-02T14:40:54.823Z,11.48
2023-03-02T14:43:23.333Z,11.43
2023-03-02T14:45:50.182Z,11.68
2023-03-02T14:48:17.132Z,11.68
2023-03-02T14:50:49.783Z,11.30
2023-03-02T14:53:29.486Z,10.70
2023-03-02T14:55:56.519Z,10.98
2023-03-02T14:58:32.641Z,10.48
2023-03-02T15:01:00.353Z,9.88
2023-03-02T15:03:27.410Z,10.82
2023-03-02T15:06:01.295Z,10.90
2023-03-02T15:08:29.336Z,11.70
2023-03-02T15:10:56.126Z,12.05
2023-03-02T15:13:22.957Z,11.52
2023-03-02T15:15:50.094Z,11.43
2023-03-02T15:18:19.596Z,12.75
2023-03-02T15:20:46.737Z,13.02
2023-03-02T15:23:13.621Z,12.73
2023-03-02T15:25:40.690Z,13.52
2023-03-02T15:28:07.516Z,14.00
2023-03-02T15:30:34.360Z,12.90
2023-03-02T15:33:01.257Z,13.00
2023-03-02T15:35:29.305Z,12.45
2023-03-02T15:37:58.252Z,12.48
2023-03-02T15:40:25.713Z,13.15
2023-03-02T15:42:53.057Z,12.32
2023-03-02T15:45:20.223Z,13.10
2023-03-02T15:47:47.110Z,12.32
2023-03-02T15:50:13.908Z,13.18
2023-03-02T15:52:41.934Z,13.23
2023-03-02T15:55:09.265Z,13.63
2023-03-02T15:57:39.518Z,13.13
2023-03-02T16:00:08.102Z,14.15
2023-03-02T16:02:35.350Z,14.52
2023-03-02T16:05:02.261Z,14.80
2023-03-02T16:07:30.425Z,14.55
2023-03-02T16:09:57.255Z,13.93
2023-03-02T16:12:26.474Z,13.93
2023-03-02T16:14:53.233Z,14.82
2023-03-02T16:17:20.453Z,13.70
2023-03-02T16:19:47.361Z,13.77
2023-03-02T16:22:14.754Z,12.65
2023-03-02T16:24:41.988Z,13.05
2023-03-02T16:27:08.999Z,12.68
2023-03-02T16:29:35.900Z,11.55
2023-03-02T16:32:03.140Z,11.52
2023-03-02T16:34:30.142Z,12.70
2023-03-02T16:36:57.076Z,11.52
2023-03-02T16:39:24.436Z,12.90
2023-03-02T16:41:51.629Z,12.05
2023-03-02T16:44:19.595Z,12.73
2023-03-02T16:46:46.592Z,13.75
2023-03-02T16:49:14.055Z,13.45
2023-03-02T16:51:42.354Z,13.65
2023-03-02T16:54:10.166Z,12.77
2023-03-02T16:56:37.550Z,13.57
2023-03-02T16:59:04.431Z,13.05
2023-03-02T17:01:31.373Z,12.70
2023-03-02T17:03:58.383Z,13.10
2023-03-02T17:06:25.505Z,13.02
2023-03-02T17:08:52.426Z,12.85
2023-03-02T17:11:20.287Z,13.57
2023-03-02T17:13:47.260Z,12.10
2023-03-02T17:16:16.112Z,12.35
2023-03-02T17:18:46.746Z,12.05
2023-03-02T17:21:16.689Z,12.38
2023-03-02T17:23:44.322Z,12.10
2023-03-02T17:26:11.254Z,12.23
2023-03-02T17:28:39.175Z,10.88
2023-03-02T17:31:06.284Z,11.27
2023-03-02T17:33:33.945Z,10.73
2023-03-02T17:36:11.839Z,11.20
2023-03-02T17:38:40.187Z,11.85
2023-03-02T17:41:10.071Z,10.82
2023-03-02T17:43:41.048Z,10.55
2023-03-02T17:46:22.702Z,11.57
2023-03-02T17:48:54.136Z,10.93
2023-03-02T17:51:22.150Z,11.85
2023-03-02T17:53:51.311Z,11.32
2023-03-02T17:56:22.352Z,11.93
2023-03-02T17:58:58.382Z,12.60
2023-03-02T18:01:26.341Z,12.50
2023-03-02T18:03:53.378Z,12.05
2023-03-02T18:06:20.761Z,11.95
2023-03-02T18:08:50.010Z,12.25
2023-03-02T18:11:20.711Z,12.65
2023-03-02T18:13:48.013Z,12.27
2023-03-02T18:16:14.891Z,12.23
2023-03-02T18:18:41.848Z,11.90
2023-03-02T18:21:08.926Z,12.30
2023-03-02T18:23:35.836Z,12.80
2023-03-02T18:26:02.842Z,13.27
2023-03-02T18:28:30.089Z,13.23
2023-03-02T18:30:57.203Z,13.82
2023-03-02T18:33:23.985Z,13.90
2023-03-02T18:35:50.875Z,12.95
2023-03-02T18:38:18.010Z,15.00
2023-03-02T18:40:44.878Z,14.43
2023-03-02T18:43:11.771Z,12.77
2023-03-02T18:45:38.841Z,13.88
2023-03-02T18:48:06.197Z,13.93
2023-03-02T18:50:33.098Z,13.77
2023-03-02T18:53:00.879Z,13.48
2023-03-02T18:55:27.822Z,13.30
2023-03-02T18:57:54.925Z,14.70
2023-03-02T19:00:27.948Z,14.45
2023-03-02T19:02:56.831Z,13.93
2023-03-02T19:05:26.820Z,12.45
2023-03-02T19:07:54.738Z,14.45
2023-03-02T19:10:21.679Z,15.68
2023-03-02T19:12:48.573Z,13.70
2023-03-02T19:15:15.941Z,13.35
2023-03-02T19:17:43.538Z,13.18
2023-03-02T19:20:16.300Z,13.05
2023-03-02T19:22:43.079Z,12.52
2023-03-02T19:25:11.553Z,12.73
2023-03-02T19:27:39.744Z,12.65
2023-03-02T19:30:11.390Z,12.48
2023-03-02T19:32:38.346Z,13.00
2023-03-02T19:35:06.066Z,13.07
2023-03-02T19:37:33.315Z,12.98
2023-03-02T19:40:00.315Z,13.45
2023-03-02T19:42:27.186Z,12.48
2023-03-02T19:44:53.950Z,13.60
2023-03-02T19:47:20.741Z,12.93
2023-03-02T19:49:47.523Z,12.65
2023-03-02T19:52:14.288Z,12.63
2023-03-02T19:54:43.509Z,11.95
2023-03-02T19:57:10.313Z,11.63
2023-03-02T19:59:39.685Z,11.50
2023-03-02T20:02:06.648Z,11.65
2023-03-02T20:04:33.802Z,10.85
2023-03-02T20:07:01.277Z,11.38
2023-03-02T20:09:28.101Z,12.40
2023-03-02T20:11:54.931Z,12.20
2023-03-02T20:14:33.421Z,11.75
2023-03-02T20:17:02.257Z,12.98
2023-03-02T20:19:29.226Z,12.27
2023-03-02T20:21:56.281Z,13.32
2023-03-02T20:24:23.154Z,13.00
2023-03-02T20:26:50.269Z,12.57
2023-03-02T20:29:18.886Z,13.75
2023-03-02T20:31:45.952Z,14.65
2023-03-02T20:34:16.479Z,16.20
2023-03-02T20:36:44.306Z,16.42
2023-03-02T20:39:23.759Z,17.20
2023-03-02T20:41:51.979Z,17.15
2023-03-02T20:44:19.293Z,17.85
2023-03-02T20:46:53.914Z,16.88
2023-03-02T20:49:24.450Z,18.60
2023-03-02T20:51:56.674Z,18.45
2023-03-02T20:54:32.497Z,19.10
2023-03-02T20:56:59.625Z,17.52
2023-03-02T20:59:27.903Z,18.05
2023-03-02T21:01:54.804Z,17.17
2023-03-02T21:04:21.786Z,17.77
2023-03-02T21:06:48.854Z,17.55
2023-03-02T21:09:17.929Z,17.40
2023-03-02T21:11:46.196Z,19.13
2023-03-02T21:14:16.184Z,18.63
2023-03-02T21:16:44.416Z,19.00
2023-03-02T21:19:17.231Z,19.55
2023-03-02T21:21:45.161Z,18.13
2023-03-02T21:24:18.047Z,18.80
2023-03-02T21:26:47.411Z,20.42
2023-03-02T21:29:15.547Z,19.80
2023-03-02T21:31:43.826Z,18.80
2023-03-02T21:34:13.208Z,19.80
2023-03-02T21:36:41.251Z,19.52
2023-03-02T21:39:09.923Z,20.05
2023-03-02T21:41:36.802Z,18.30
2023-03-02T21:44:05.628Z,18.90
2023-03-02T21:46:35.675Z,17.52
2023-03-02T21:49:03.305Z,18.50
2023-03-02T21:51:30.287Z,18.25
2023-03-02T21:53:57.108Z,18.80
2023-03-02T21:56:26.489Z,18.65
2023-03-02T21:58:57.006Z,17.55
2023-03-02T22:01:26.107Z,18.40
2023-03-02T22:03:53.653Z,17.80
2023-03-02T22:06:25.484Z,18.02
2023-03-02T22:08:53.713Z,17.77
2023-03-02T22:11:28.665Z,17.95
2023-03-02T22:13:58.736Z,16.65
2023-03-02T22:16:32.889Z,17.50
2023-03-02T22:19:00.817Z,17.95
2023-03-02T22:21:35.641Z,17.20
2023-03-02T22:24:20.271Z,15.82
2023-03-02T22:27:01.912Z,15.48
2023-03-02T22:29:45.059Z,15.07
2023-03-02T22:32:19.551Z,15.85
2023-03-02T22:34:53.250Z,15.38
2023-03-02T22:37:32.774Z,15.60
2023-03-02T22:40:26.263Z,14.27
2023-03-02T22:43:21.169Z,13.13
2023-03-02T22:45:48.083Z,12.60
2023-03-02T22:48:22.054Z,12.82
2023-03-02T22:50:50.227Z,12.57
2023-03-02T22:53:58.279Z,12.10
2023-03-02T22:56:43.411Z,11.70
2023-03-02T22:59:25.328Z,10.65
2023-03-02T23:02:12.928Z,10.55
2023-03-02T23:04:40.469Z,11.10
2023-03-02T23:07:22.212Z,10.13
2023-03-02T23:09:49.204Z,10.27
2023-03-02T23:12:28.441Z,8.82
2023-03-02T23:14:58.437Z,10.18
2023-03-02T23:17:39.671Z,9.45
2023-03-02T23:20:11.125Z,9.57
2023-03-02T23:22:39.097Z,9.25
2023-03-02T23:25:08.712Z,8.63
2023-03-02T23:27:35.665Z,8.63
2023-03-02T23:30:03.499Z,9.05
2023-03-02T23:32:30.447Z,8.85
2023-03-02T23:34:57.244Z,9.40
2023-03-02T23:37:24.026Z,8.75
2023-03-02T23:39:50.781Z,8.68
2023-03-02T23:42:17.554Z,10.13
2023-03-02T23:44:45.210Z,8.25
2023-03-02T23:47:12.096Z,8.52
2023-03-02T23:49:39.013Z,8.13
2023-03-02T23:52:05.952Z,8.18
2023-03-02T23:54:33.045Z,8.13
2023-03-02T23:56:59.858Z,8.68
2023-03-02T23:59:26.666Z,8.48
